Terminal Aerodrome Forecast
Issued by NWS

Home | Current Version | Previous Version | Text Only | Print | Product List | Glossary On
Versions: 1 2 3 4 5 6 7 8 9 10 11 12 13 14 15 16 17 18 19 20
314
FTUS43 KDLH 221120
TAFBRD
TAF
KBRD 221120Z 2212/2312 25007KT P6SM SKC
     FM230200 19006KT P6SM BKN090 WS020/21036KT
     FM230600 20007KT P6SM BKN080=

USA.gov is the U.S. government's official web portal to all federal, state and local government web resources and services.